createdAt,value
2018-06-02T00:00:47.609Z,16.30
2018-06-02T00:03:13.976Z,16.30
2018-06-02T00:05:40.404Z,16.30
2018-06-02T00:08:06.779Z,16.30
2018-06-02T00:10:33.168Z,16.30
2018-06-02T00:12:59.550Z,16.20
2018-06-02T00:15:25.973Z,16.20
2018-06-02T00:17:53.133Z,16.20
2018-06-02T00:20:19.543Z,16.20
2018-06-02T00:22:45.940Z,16.20
2018-06-02T00:25:12.322Z,16.20
2018-06-02T00:27:39.460Z,16.30
2018-06-02T00:30:06.585Z,16.30
2018-06-02T00:32:32.988Z,16.20
2018-06-02T00:34:59.359Z,16.30
2018-06-02T00:37:25.756Z,16.20
2018-06-02T00:39:52.119Z,16.20
2018-06-02T00:42:18.492Z,16.10
2018-06-02T00:44:45.628Z,16.00
2018-06-02T00:47:12.057Z,16.00
2018-06-02T00:49:38.489Z,16.00
2018-06-02T00:52:04.843Z,15.90
2018-06-02T00:54:44.232Z,15.80
2018-06-02T00:57:10.611Z,15.70
2018-06-02T00:59:37.749Z,15.70
2018-06-02T01:02:04.871Z,15.70
2018-06-02T01:04:31.262Z,15.60
2018-06-02T01:06:58.384Z,15.60
2018-06-02T01:09:24.793Z,15.60
2018-06-02T01:11:51.173Z,15.70
2018-06-02T01:14:18.316Z,15.70
2018-06-02T01:16:45.440Z,15.70
2018-06-02T01:19:11.831Z,15.70
2018-06-02T01:21:38.243Z,15.70
2018-06-02T01:24:05.354Z,15.70
2018-06-02T01:26:31.752Z,15.70
2018-06-02T01:28:58.163Z,15.70
2018-06-02T01:31:25.309Z,15.80
2018-06-02T01:33:52.428Z,15.80
2018-06-02T01:36:18.827Z,15.80
2018-06-02T01:38:45.209Z,15.80
2018-06-02T01:41:11.617Z,15.80
2018-06-02T01:43:37.990Z,15.70
2018-06-02T01:46:05.126Z,15.70
2018-06-02T01:48:31.535Z,15.70
2018-06-02T01:50:57.900Z,15.60
2018-06-02T01:53:24.290Z,15.60
2018-06-02T01:55:50.672Z,15.50
2018-06-02T01:58:17.068Z,15.40
2018-06-02T02:00:43.445Z,15.40
2018-06-02T02:03:10.584Z,15.30
2018-06-02T02:05:36.963Z,15.20
2018-06-02T02:08:03.368Z,15.20
2018-06-02T02:10:30.514Z,15.20
2018-06-02T02:12:57.645Z,15.20
2018-06-02T02:15:24.036Z,15.10
2018-06-02T02:17:50.407Z,15.10
2018-06-02T02:20:16.843Z,15.00
2018-06-02T02:22:43.222Z,15.00
2018-06-02T02:25:09.623Z,14.90
2018-06-02T02:27:36.003Z,14.90
2018-06-02T02:30:02.465Z,14.90
2018-06-02T02:32:28.837Z,14.80
2018-06-02T02:34:55.972Z,14.70
2018-06-02T02:37:22.396Z,14.60
2018-06-02T02:39:48.801Z,14.70
2018-06-02T02:42:15.213Z,14.60
2018-06-02T02:44:41.599Z,14.60
2018-06-02T02:47:07.998Z,14.60
2018-06-02T02:49:34.368Z,14.60
2018-06-02T02:52:00.764Z,14.60
2018-06-02T02:54:27.136Z,14.50
2018-06-02T02:56:53.531Z,14.50
2018-06-02T02:59:19.929Z,14.50
2018-06-02T03:01:47.056Z,14.40
2018-06-02T03:04:13.481Z,14.30
2018-06-02T03:06:39.875Z,14.40
2018-06-02T03:09:06.305Z,14.40
2018-06-02T03:11:32.716Z,14.30
2018-06-02T03:13:59.863Z,14.30
2018-06-02T03:16:26.996Z,14.30
2018-06-02T03:18:53.397Z,14.20
2018-06-02T03:21:19.805Z,14.30
2018-06-02T03:23:46.222Z,14.30
2018-06-02T03:26:13.332Z,14.30
2018-06-02T03:28:39.732Z,14.20
2018-06-02T03:31:06.151Z,14.30
2018-06-02T03:33:32.524Z,14.30
2018-06-02T03:35:58.929Z,14.30
2018-06-02T03:38:25.308Z,14.30
2018-06-02T03:40:51.700Z,14.30
2018-06-02T03:43:18.088Z,14.20
2018-06-02T03:45:44.493Z,14.20
2018-06-02T03:48:10.860Z,14.20
2018-06-02T03:50:37.255Z,14.20
2018-06-02T03:53:03.661Z,14.20
2018-06-02T03:55:30.055Z,14.20
2018-06-02T03:57:56.456Z,14.20
2018-06-02T04:00:22.824Z,14.20
2018-06-02T04:02:49.231Z,14.20
2018-06-02T04:05:15.605Z,14.20
2018-06-02T04:07:41.991Z,14.30
2018-06-02T04:10:08.396Z,14.30
2018-06-02T04:12:34.787Z,14.40
2018-06-02T04:15:01.185Z,14.40
2018-06-02T04:17:27.561Z,14.40
2018-06-02T04:19:54.008Z,14.50
2018-06-02T04:22:20.397Z,14.50
2018-06-02T04:24:46.790Z,14.50
2018-06-02T04:27:13.913Z,14.60
2018-06-02T04:29:42.516Z,14.60
2018-06-02T04:32:09.517Z,14.70
2018-06-02T04:34:36.369Z,14.70
2018-06-02T04:37:02.769Z,14.80
2018-06-02T04:39:29.912Z,15.60
2018-06-02T04:41:56.312Z,15.60
2018-06-02T04:44:22.671Z,15.60
2018-06-02T04:46:49.813Z,16.10
2018-06-02T04:49:16.953Z,16.70
2018-06-02T04:51:43.352Z,16.60
2018-06-02T04:54:09.732Z,16.60
2018-06-02T04:56:36.875Z,17.80
2018-06-02T04:59:04.005Z,18.70
2018-06-02T05:01:30.400Z,18.70
2018-06-02T05:03:56.780Z,18.90
2018-06-02T05:06:23.177Z,19.40
2018-06-02T05:08:49.601Z,19.10
2018-06-02T05:11:15.983Z,18.50
2018-06-02T05:13:42.376Z,17.90
2018-06-02T05:16:08.755Z,17.60
2018-06-02T05:18:35.892Z,18.80
2018-06-02T05:21:02.312Z,18.70
2018-06-02T05:23:28.720Z,18.30
2018-06-02T05:25:55.091Z,17.90
2018-06-02T05:28:21.500Z,17.40
2018-06-02T05:30:47.875Z,17.20
2018-06-02T05:33:14.264Z,16.90
2018-06-02T05:35:40.675Z,17.00
2018-06-02T05:38:07.792Z,16.90
2018-06-02T05:40:34.267Z,16.80
2018-06-02T05:43:00.594Z,17.00
2018-06-02T05:45:27.735Z,17.20
2018-06-02T05:47:54.860Z,17.20
2018-06-02T05:50:21.294Z,17.10
2018-06-02T05:52:47.681Z,17.40
2018-06-02T05:55:14.080Z,17.50
2018-06-02T05:57:40.506Z,17.60
2018-06-02T06:00:06.937Z,17.50
2018-06-02T06:02:33.386Z,17.50
2018-06-02T06:05:00.535Z,17.60
2018-06-02T06:07:27.660Z,17.60
2018-06-02T06:09:54.064Z,17.60
2018-06-02T06:12:20.456Z,17.80
2018-06-02T06:14:47.593Z,17.90
2018-06-02T06:17:13.985Z,17.90
2018-06-02T06:19:40.382Z,17.90
2018-06-02T06:22:06.896Z,18.00
2018-06-02T06:24:33.295Z,18.20
2018-06-02T06:26:59.719Z,18.70
2018-06-02T06:29:26.109Z,18.70
2018-06-02T06:31:52.910Z,19.50
2018-06-02T06:34:19.312Z,19.60
2018-06-02T06:36:45.705Z,19.60
2018-06-02T06:39:12.195Z,19.80
2018-06-02T06:41:38.548Z,20.00
2018-06-02T06:44:04.968Z,20.20
2018-06-02T06:46:31.438Z,20.00
2018-06-02T06:48:57.799Z,19.80
2018-06-02T06:51:24.919Z,20.10
2018-06-02T06:53:51.324Z,20.00
2018-06-02T06:56:17.707Z,20.50
2018-06-02T06:58:45.017Z,21.30
2018-06-02T07:01:11.434Z,21.20
2018-06-02T07:03:37.825Z,21.50
2018-06-02T07:06:04.212Z,21.70
2018-06-02T07:08:31.175Z,21.80
2018-06-02T07:10:57.548Z,22.10
2018-06-02T07:13:23.962Z,22.70
2018-06-02T07:15:50.383Z,23.20
2018-06-02T07:18:16.773Z,22.80
2018-06-02T07:20:43.972Z,22.00
2018-06-02T07:23:10.387Z,22.00
2018-06-02T07:25:36.804Z,22.10
2018-06-02T07:28:03.197Z,22.40
2018-06-02T07:30:29.635Z,23.20
2018-06-02T07:32:56.004Z,23.50
2018-06-02T07:35:22.398Z,24.00
2018-06-02T07:37:48.945Z,23.80
2018-06-02T07:40:16.068Z,22.80
2018-06-02T07:42:42.464Z,22.70
2018-06-02T07:45:08.871Z,22.90
2018-06-02T07:47:35.983Z,22.90
2018-06-02T07:50:02.432Z,22.80
2018-06-02T07:52:28.850Z,22.60
2018-06-02T07:54:55.228Z,22.60
2018-06-02T07:57:22.375Z,23.20
2018-06-02T07:59:49.500Z,23.50
2018-06-02T08:02:15.900Z,23.40
2018-06-02T08:04:42.303Z,23.30
2018-06-02T08:07:09.433Z,22.40
2018-06-02T08:09:35.845Z,22.40
2018-06-02T08:12:02.220Z,22.20
2018-06-02T08:14:29.366Z,22.00
2018-06-02T08:16:56.491Z,22.30
2018-06-02T08:19:22.881Z,22.30
2018-06-02T08:21:49.288Z,22.70
2018-06-02T08:24:15.764Z,23.10
2018-06-02T08:26:43.309Z,23.10
2018-06-02T08:29:09.581Z,23.00
2018-06-02T08:31:36.727Z,22.70
2018-06-02T08:37:32.519Z,23.00
2018-06-02T08:39:58.934Z,23.60
2018-06-02T08:42:25.303Z,23.40
2018-06-02T08:44:51.704Z,23.40
2018-06-02T08:47:18.117Z,23.50
2018-06-02T08:49:45.251Z,24.20
2018-06-02T08:52:12.401Z,23.50
2018-06-02T08:54:39.561Z,23.20
2018-06-02T08:57:06.682Z,23.80
2018-06-02T08:59:33.089Z,23.70
2018-06-02T09:01:59.483Z,24.20
2018-06-02T09:04:26.605Z,25.00
2018-06-02T09:06:53.000Z,24.90
2018-06-02T09:09:19.449Z,25.60
2018-06-02T09:11:45.829Z,25.90
2018-06-02T09:14:12.224Z,26.00
2018-06-02T09:16:38.621Z,25.50
2018-06-02T09:19:04.857Z,24.60
2018-06-02T09:21:31.099Z,23.90
2018-06-02T09:23:57.332Z,23.80
2018-06-02T09:26:23.556Z,24.30
2018-06-02T09:28:49.747Z,24.10
2018-06-02T09:31:16.025Z,24.20
2018-06-02T09:33:42.262Z,24.60
2018-06-02T09:36:08.494Z,25.00
2018-06-02T09:38:34.719Z,24.80
2018-06-02T09:41:00.949Z,24.50
2018-06-02T09:43:27.142Z,24.00
2018-06-02T09:45:54.106Z,23.40
2018-06-02T09:48:20.339Z,23.40
2018-06-02T09:50:46.587Z,23.40
2018-06-02T09:53:12.810Z,23.50
2018-06-02T09:55:39.040Z,23.40
2018-06-02T09:58:05.239Z,23.10
2018-06-02T10:00:32.254Z,23.20
2018-06-02T10:02:58.479Z,23.10
2018-06-02T10:05:24.684Z,23.20
2018-06-02T10:07:50.908Z,23.60
2018-06-02T10:10:17.155Z,23.60
2018-06-02T10:12:43.403Z,23.60
2018-06-02T10:15:10.381Z,23.50
2018-06-02T10:17:37.329Z,23.60
2018-06-02T10:20:04.303Z,23.60
2018-06-02T10:22:30.531Z,23.50
2018-06-02T10:24:56.734Z,23.50
2018-06-02T10:27:23.700Z,23.60
2018-06-02T10:29:49.921Z,23.60
2018-06-02T10:32:16.855Z,24.10
2018-06-02T10:34:43.814Z,24.40
2018-06-02T10:37:10.806Z,23.90
2018-06-02T10:39:37.015Z,23.80
2018-06-02T10:42:03.269Z,23.80
2018-06-02T10:44:29.509Z,23.50
2018-06-02T10:46:55.720Z,23.30
2018-06-02T10:49:21.947Z,23.70
2018-06-02T10:51:48.181Z,24.40
2018-06-02T10:54:14.394Z,24.70
2018-06-02T10:56:40.628Z,24.40
2018-06-02T10:59:06.864Z,23.60
2018-06-02T11:01:33.091Z,23.00
2018-06-02T11:03:59.310Z,22.50
2018-06-02T11:06:25.570Z,22.50
2018-06-02T11:08:51.783Z,22.60
2018-06-02T11:11:18.019Z,23.00
2018-06-02T11:13:44.234Z,23.50
2018-06-02T11:16:10.459Z,24.00
2018-06-02T11:18:36.751Z,24.20
2018-06-02T11:21:02.963Z,24.20
2018-06-02T11:23:29.228Z,24.30
2018-06-02T11:25:56.192Z,24.00
2018-06-02T11:28:22.400Z,23.90
2018-06-02T11:30:49.375Z,23.60
2018-06-02T11:33:15.600Z,23.60
2018-06-02T11:35:41.830Z,23.40
2018-06-02T11:38:08.071Z,23.50
2018-06-02T11:40:34.298Z,23.40
2018-06-02T11:43:00.498Z,23.60
2018-06-02T11:45:27.460Z,23.80
2018-06-02T11:47:53.683Z,23.70
2018-06-02T11:50:20.631Z,24.10
2018-06-02T11:52:46.858Z,24.10
2018-06-02T11:55:13.811Z,24.20
2018-06-02T11:57:40.773Z,24.20
2018-06-02T12:00:07.031Z,24.20
2018-06-02T12:02:33.226Z,23.90
2018-06-02T12:04:59.452Z,24.10
2018-06-02T12:07:25.759Z,24.40
2018-06-02T12:09:52.725Z,24.70
2018-06-02T12:12:19.691Z,24.80
2018-06-02T12:14:45.886Z,24.80
2018-06-02T12:17:12.860Z,23.90
2018-06-02T12:19:39.087Z,23.80
2018-06-02T12:22:05.283Z,24.00
2018-06-02T12:24:31.518Z,24.20
2018-06-02T12:26:57.710Z,24.50
2018-06-02T12:29:23.934Z,24.70
2018-06-02T12:31:50.167Z,24.80
2018-06-02T12:34:16.392Z,24.70
2018-06-02T12:36:42.616Z,24.60
2018-06-02T12:39:08.867Z,24.70
2018-06-02T12:41:35.107Z,24.40
2018-06-02T12:44:01.322Z,24.40
2018-06-02T12:46:27.542Z,24.40
2018-06-02T12:48:53.787Z,24.50
2018-06-02T12:51:20.003Z,24.70
2018-06-02T12:53:46.223Z,24.70
2018-06-02T12:56:12.431Z,24.90
2018-06-02T12:58:38.660Z,25.00
2018-06-02T13:01:04.858Z,25.00
2018-06-02T13:03:31.823Z,24.90
2018-06-02T13:05:58.786Z,25.00
2018-06-02T13:08:24.982Z,24.90
2018-06-02T13:10:51.196Z,24.90
2018-06-02T13:13:17.414Z,24.70
2018-06-02T13:15:43.629Z,24.90
2018-06-02T13:18:09.866Z,25.00
2018-06-02T13:20:36.115Z,25.10
2018-06-02T13:23:02.338Z,25.30
2018-06-02T13:25:28.582Z,25.50
2018-06-02T13:27:54.814Z,25.80
2018-06-02T13:30:21.011Z,26.10
2018-06-02T13:32:47.230Z,26.10
2018-06-02T13:35:13.450Z,26.10
2018-06-02T13:37:39.667Z,26.10
2018-06-02T13:40:06.654Z,25.40
2018-06-02T13:42:32.880Z,25.30
2018-06-02T13:44:59.099Z,24.70
2018-06-02T13:47:25.334Z,24.70
2018-06-02T13:49:51.554Z,24.70
2018-06-02T13:52:17.743Z,24.70
2018-06-02T13:54:43.987Z,24.80
2018-06-02T13:57:10.936Z,25.10
2018-06-02T13:59:37.907Z,25.10
2018-06-02T14:02:04.147Z,25.10
2018-06-02T14:04:30.343Z,25.20
2018-06-02T14:06:57.310Z,26.20
2018-06-02T14:09:23.553Z,26.20
2018-06-02T14:11:49.747Z,26.40
2018-06-02T14:14:16.723Z,26.80
2018-06-02T14:16:43.019Z,26.70
2018-06-02T14:19:09.958Z,26.70
2018-06-02T14:21:36.179Z,26.70
2018-06-02T14:24:02.442Z,27.20
2018-06-02T14:26:29.391Z,27.90
2018-06-02T14:28:55.611Z,27.90
2018-06-02T14:31:22.579Z,27.40
2018-06-02T14:33:48.770Z,27.30
2018-06-02T14:36:14.988Z,27.30
2018-06-02T14:38:41.211Z,27.60
2018-06-02T14:41:07.411Z,27.80
2018-06-02T14:43:33.663Z,27.80
2018-06-02T14:46:00.097Z,27.30
2018-06-02T14:48:26.477Z,26.60
2018-06-02T14:50:52.920Z,26.40
2018-06-02T14:53:19.325Z,26.10
2018-06-02T14:55:45.684Z,26.00
2018-06-02T14:58:12.834Z,26.40
2018-06-02T15:00:39.981Z,26.70
2018-06-02T15:03:07.088Z,26.80
2018-06-02T15:05:33.476Z,26.80
2018-06-02T15:07:59.885Z,26.60
2018-06-02T15:10:27.005Z,26.00
2018-06-02T15:12:53.404Z,26.00
2018-06-02T15:15:19.632Z,25.40
2018-06-02T15:17:46.749Z,24.60
2018-06-02T15:20:13.723Z,24.70
2018-06-02T15:22:39.950Z,24.60
2018-06-02T15:25:06.912Z,24.50
2018-06-02T15:27:33.151Z,24.50
2018-06-02T15:29:59.384Z,24.00
2018-06-02T15:32:25.586Z,24.10
2018-06-02T15:34:51.819Z,24.30
2018-06-02T15:37:18.045Z,24.50
2018-06-02T15:39:44.983Z,24.90
2018-06-02T15:42:11.973Z,25.20
2018-06-02T15:44:38.190Z,25.20
2018-06-02T15:47:04.407Z,25.10
2018-06-02T15:49:30.624Z,25.10
2018-06-02T15:51:57.562Z,25.10
2018-06-02T15:54:24.526Z,25.10
2018-06-02T15:56:50.745Z,25.10
2018-06-02T15:59:17.683Z,25.10
2018-06-02T16:01:44.640Z,25.10
2018-06-02T16:04:11.604Z,25.10
2018-06-02T16:06:37.815Z,25.10
2018-06-02T16:09:04.805Z,25.10
2018-06-02T16:11:31.026Z,25.10
2018-06-02T16:13:57.228Z,25.20
2018-06-02T16:16:24.182Z,25.40
2018-06-02T16:18:50.397Z,25.40
2018-06-02T16:21:17.338Z,25.60
2018-06-02T16:23:44.317Z,25.60
2018-06-02T16:26:10.532Z,25.60
2018-06-02T16:28:37.471Z,29.20
2018-06-02T16:31:04.452Z,29.70
2018-06-02T16:33:30.860Z,29.60
2018-06-02T16:35:57.256Z,29.50
2018-06-02T16:38:23.643Z,29.30
2018-06-02T16:40:50.032Z,29.40
2018-06-02T16:43:16.407Z,29.50
2018-06-02T16:45:42.835Z,29.50
2018-06-02T16:48:09.225Z,29.70
2018-06-02T16:50:35.594Z,30.00
2018-06-02T16:53:02.749Z,30.40
2018-06-02T16:55:29.170Z,30.30
2018-06-02T16:57:55.553Z,29.90
2018-06-02T17:00:21.951Z,30.10
2018-06-02T17:02:48.344Z,30.00
2018-06-02T17:05:14.720Z,29.90
2018-06-02T17:07:41.133Z,30.10
2018-06-02T17:10:08.267Z,30.60
2018-06-02T17:12:34.648Z,30.50
2018-06-02T17:15:01.068Z,30.60
2018-06-02T17:17:28.212Z,30.10
2018-06-02T17:19:55.406Z,30.40
2018-06-02T17:22:22.512Z,30.40
2018-06-02T17:24:49.637Z,30.40
2018-06-02T17:27:16.042Z,30.40
2018-06-02T17:29:42.431Z,30.70
2018-06-02T17:32:09.603Z,30.50
2018-06-02T17:34:35.984Z,30.50
2018-06-02T17:37:02.402Z,30.30
2018-06-02T17:39:28.777Z,30.10
2018-06-02T17:41:55.976Z,29.60
2018-06-02T17:44:22.372Z,29.60
2018-06-02T17:46:49.481Z,29.20
2018-06-02T17:49:15.875Z,29.20
2018-06-02T17:51:42.272Z,29.10
2018-06-02T17:54:08.644Z,29.10
2018-06-02T17:56:35.047Z,29.30
2018-06-02T17:59:02.199Z,28.50
2018-06-02T18:01:28.588Z,28.40
2018-06-02T18:03:54.995Z,28.10
2018-06-02T18:06:21.400Z,27.80
2018-06-02T18:08:48.533Z,27.40
2018-06-02T18:11:14.934Z,27.40
2018-06-02T18:13:41.348Z,27.00
2018-06-02T18:16:07.727Z,25.70
2018-06-02T18:18:34.118Z,25.20
2018-06-02T18:21:00.341Z,25.60
2018-06-02T18:23:27.447Z,26.10
2018-06-02T18:25:53.845Z,26.10
2018-06-02T18:28:20.239Z,26.10
2018-06-02T18:30:47.372Z,25.80
2018-06-02T18:33:13.769Z,25.70
2018-06-02T18:35:40.157Z,25.50
2018-06-02T18:38:07.161Z,24.20
2018-06-02T18:40:33.568Z,24.10
2018-06-02T18:42:59.969Z,23.40
2018-06-02T18:45:26.188Z,22.80
2018-06-02T18:47:52.450Z,22.40
2018-06-02T18:50:19.571Z,21.70
2018-06-02T18:52:46.692Z,21.40
2018-06-02T18:55:13.087Z,21.30
2018-06-02T18:57:40.222Z,20.90
2018-06-02T19:00:07.338Z,20.70
2018-06-02T19:02:33.748Z,20.70
2018-06-02T19:05:00.166Z,20.60
2018-06-02T19:07:26.375Z,20.50
2018-06-02T19:09:53.340Z,20.10
2018-06-02T19:12:19.538Z,20.10
2018-06-02T19:14:45.764Z,19.90
2018-06-02T19:17:12.773Z,19.40
2018-06-02T19:19:39.010Z,19.40
2018-06-02T19:22:05.229Z,19.30
2018-06-02T19:24:31.459Z,19.10
2018-06-02T19:26:58.615Z,19.00
2018-06-02T19:29:26.748Z,18.70
2018-06-02T19:31:56.070Z,18.70
2018-06-02T19:34:26.160Z,18.60
2018-06-02T19:36:56.139Z,18.50
2018-06-02T19:39:25.260Z,18.40
2018-06-02T19:41:51.526Z,18.20
2018-06-02T19:44:20.896Z,18.00
2018-06-02T19:46:47.285Z,18.00
2018-06-02T19:49:13.748Z,18.00
2018-06-02T19:51:43.860Z,17.90
2018-06-02T19:54:10.392Z,17.80
2018-06-02T19:56:36.572Z,17.70
2018-06-02T19:59:06.412Z,17.50
2018-06-02T20:01:32.858Z,17.50
2018-06-02T20:03:59.073Z,17.50
2018-06-02T20:06:29.226Z,17.50
2018-06-02T20:08:59.169Z,17.60
2018-06-02T20:11:25.564Z,17.50
2018-06-02T20:13:51.794Z,17.40
2018-06-02T20:16:21.654Z,17.30
2018-06-02T20:18:50.138Z,17.20
2018-06-02T20:21:18.213Z,17.20
2018-06-02T20:23:44.428Z,17.10
2018-06-02T20:26:14.365Z,17.00
2018-06-02T20:28:45.157Z,17.00
2018-06-02T20:31:11.499Z,17.00
2018-06-02T20:33:38.725Z,16.90
2018-06-02T20:38:34.688Z,16.90
2018-06-02T20:41:02.610Z,16.90
2018-06-02T20:45:58.258Z,16.70
2018-06-02T20:48:26.224Z,16.60
2018-06-02T20:53:21.863Z,16.40
2018-06-02T20:55:49.767Z,16.30
2018-06-02T20:58:17.656Z,16.20
2018-06-02T21:00:45.545Z,16.20
2018-06-02T21:03:13.473Z,16.10
2018-06-02T21:05:41.349Z,16.10
2018-06-02T21:08:09.256Z,16.10
2018-06-02T21:13:04.971Z,16.20
2018-06-02T21:15:32.881Z,16.30
2018-06-02T21:18:00.792Z,16.30
2018-06-02T21:20:28.688Z,16.40
2018-06-02T21:22:56.583Z,16.40
2018-06-02T21:27:52.168Z,16.50
2018-06-02T21:30:20.080Z,16.50
2018-06-02T21:35:15.706Z,16.50
2018-06-02T21:40:11.488Z,16.60
2018-06-02T21:42:39.639Z,16.60
2018-06-02T21:45:07.731Z,16.70
2018-06-02T21:47:35.816Z,16.90
2018-06-02T21:50:04.061Z,16.90
2018-06-02T21:52:32.163Z,16.90
2018-06-02T21:55:00.227Z,17.00
2018-06-02T21:57:28.285Z,17.10
2018-06-02T21:59:56.472Z,17.10
2018-06-02T22:02:24.555Z,17.10
2018-06-02T22:04:52.635Z,17.20
2018-06-02T22:07:20.708Z,17.20
2018-06-02T22:09:49.049Z,17.10
2018-06-02T22:14:45.128Z,17.00
2018-06-02T22:17:13.167Z,16.90
2018-06-02T22:19:41.383Z,16.80
2018-06-02T22:22:09.542Z,16.70
2018-06-02T22:24:37.699Z,16.70
2018-06-02T22:27:05.805Z,16.80
2018-06-02T22:29:33.872Z,16.90
2018-06-02T22:32:01.920Z,16.90
2018-06-02T22:34:30.018Z,16.90
2018-06-02T22:36:58.081Z,17.00
2018-06-02T22:39:26.144Z,17.00
2018-06-02T22:41:54.224Z,16.90
2018-06-02T22:44:22.408Z,16.80
2018-06-02T22:46:50.465Z,16.70
2018-06-02T22:49:18.559Z,16.60
2018-06-02T22:51:57.394Z,16.50
2018-06-02T22:54:25.673Z,16.50
2018-06-02T22:56:54.135Z,16.40
2018-06-02T22:59:22.392Z,16.30
2018-06-02T23:01:50.713Z,16.30
2018-06-02T23:04:19.048Z,16.30
2018-06-02T23:11:43.089Z,16.00
2018-06-02T23:14:11.244Z,15.90
2018-06-02T23:16:39.449Z,15.70
2018-06-02T23:19:07.493Z,15.60
2018-06-02T23:24:18.838Z,15.70
2018-06-02T23:26:46.907Z,15.70
2018-06-02T23:29:14.934Z,15.60
2018-06-02T23:34:10.915Z,15.40
2018-06-02T23:36:38.957Z,15.20
2018-06-02T23:41:35.018Z,15.00
2018-06-02T23:44:03.081Z,14.90
2018-06-02T23:46:31.275Z,14.80
2018-06-02T23:48:59.448Z,14.80
2018-06-02T23:51:27.494Z,14.70
2018-06-02T23:56:23.347Z,14.70
2018-06-02T23:58:51.428Z,14.90
